Time;durP1;ratioP1;P1;durP2;ratioP2;P2;SDS_P1;SDS_P2;PMS_P1;PMS_P2;Temp;Humidity;BMP_temperature;BMP_pressure;BME280_temperature;BME280_humidity;BME280_pressure;Samples;Min_cycle;Max_cycle;Signal;HPM_P1;HPM_P2
2022/09/19 00:01:13;;;;;;;3.15;0.90;;;14.90;93.20;;;;;;10557487;28;20024;-67
2022/09/19 00:06:15;;;;;;;3.40;0.77;;;14.90;93.20;;;;;;10565144;27;21141;-67
2022/09/19 00:11:19;;;;;;;2.05;0.52;;;14.90;93.20;;;;;;10563259;28;20492;-67
2022/09/19 00:16:26;;;;;;;3.90;0.60;;;14.90;93.20;;;;;;10562228;27;20050;-67
2022/09/19 00:21:30;;;;;;;2.95;0.60;;;14.90;93.30;;;;;;10563936;27;20039;-67
2022/09/19 00:26:31;;;;;;;3.22;0.63;;;14.90;93.30;;;;;;10563981;27;20149;-67
2022/09/19 00:31:32;;;;;;;3.08;0.70;;;14.90;93.30;;;;;;10542272;27;20095;-67
2022/09/19 00:36:36;;;;;;;4.90;1.42;;;14.90;93.30;;;;;;10563130;27;20187;-67
2022/09/19 00:41:38;;;;;;;3.05;0.75;;;14.90;93.30;;;;;;10558176;28;20031;-67
2022/09/19 00:46:39;;;;;;;3.15;0.70;;;14.90;93.40;;;;;;10564561;27;20016;-67
2022/09/19 00:51:47;;;;;;;3.08;0.98;;;14.90;93.40;;;;;;10561192;27;20043;-67
2022/09/19 00:56:51;;;;;;;4.72;1.13;;;14.90;93.40;;;;;;10560660;28;20028;-67
2022/09/19 01:01:56;;;;;;;2.95;1.02;;;14.90;93.40;;;;;;10562496;28;20020;-67
2022/09/19 01:07:22;;;;;;;3.47;1.00;;;14.90;93.40;;;;;;10562965;28;20020;-67
2022/09/19 01:12:53;;;;;;;4.65;0.80;;;14.90;93.40;;;;;;10561202;27;20031;-67
2022/09/19 01:17:58;;;;;;;2.45;0.57;;;14.90;93.50;;;;;;10561743;27;20019;-67
2022/09/19 01:23:36;;;;;;;2.05;0.55;;;14.90;93.40;;;;;;10562058;28;20507;-67
2022/09/19 01:28:46;;;;;;;3.17;0.70;;;14.80;93.40;;;;;;10559593;28;20023;-67
2022/09/19 01:34:02;;;;;;;2.78;0.60;;;14.80;93.40;;;;;;10558368;28;20392;-67
2022/09/19 01:39:06;;;;;;;2.97;0.60;;;14.80;93.40;;;;;;10558366;27;20526;-67
2022/09/19 01:44:18;;;;;;;4.22;0.70;;;14.80;93.40;;;;;;10562973;28;20035;-67
2022/09/19 01:49:40;;;;;;;3.70;0.70;;;14.80;93.50;;;;;;10559892;28;20019;-67
2022/09/19 01:55:02;;;;;;;4.25;0.75;;;14.80;93.50;;;;;;10558102;28;20031;-67
2022/09/19 02:00:15;;;;;;;3.65;0.57;;;14.80;93.50;;;;;;10554584;28;20027;-67
2022/09/19 02:05:35;;;;;;;5.65;1.10;;;14.80;93.50;;;;;;10558231;28;20117;-67
2022/09/19 02:10:54;;;;;;;5.30;1.05;;;14.80;93.50;;;;;;10560990;28;20022;-67
2022/09/19 02:16:01;;;;;;;1.88;0.47;;;14.80;93.50;;;;;;10559543;28;20104;-67
2022/09/19 02:21:07;;;;;;;1.30;0.40;;;14.70;93.50;;;;;;10559582;28;20071;-67
2022/09/19 02:26:10;;;;;;;2.67;0.68;;;14.70;93.50;;;;;;10558389;28;20042;-67
2022/09/19 02:31:12;;;;;;;2.53;0.38;;;14.70;93.50;;;;;;10559250;28;20055;-67
2022/09/19 02:36:32;;;;;;;1.95;0.45;;;14.70;93.50;;;;;;10563143;28;20668;-67
2022/09/19 02:41:42;;;;;;;7.10;2.10;;;14.70;93.50;;;;;;10565042;28;20032;-67
2022/09/19 02:46:50;;;;;;;2.15;0.40;;;14.70;93.50;;;;;;10566529;28;20352;-67
2022/09/19 02:51:55;;;;;;;2.65;0.50;;;14.70;93.50;;;;;;10566265;27;20027;-67
2022/09/19 02:57:00;;;;;;;2.80;1.35;;;14.70;93.50;;;;;;10564554;28;20179;-67
2022/09/19 03:02:06;;;;;;;1.15;0.43;;;14.70;93.50;;;;;;10565234;28;20540;-67
2022/09/19 03:07:25;;;;;;;4.60;0.70;;;14.70;93.50;;;;;;10546286;28;20356;-67
2022/09/19 03:12:50;;;;;;;1.75;0.40;;;14.70;93.50;;;;;;10568315;27;20102;-67
2022/09/19 03:17:53;;;;;;;4.32;0.70;;;14.60;93.50;;;;;;10567871;27;21585;-66
2022/09/19 03:22:54;;;;;;;3.22;0.45;;;14.60;93.50;;;;;;10565639;28;20046;-67
2022/09/19 03:27:56;;;;;;;4.43;0.68;;;14.60;93.50;;;;;;10565692;27;20024;-66
2022/09/19 03:32:59;;;;;;;3.75;0.68;;;14.60;93.50;;;;;;10565542;27;20531;-67
2022/09/19 03:38:01;;;;;;;2.92;0.70;;;14.60;93.50;;;;;;10564104;28;20052;-67
2022/09/19 03:43:02;;;;;;;3.20;0.77;;;14.60;93.50;;;;;;10566892;27;20043;-67
2022/09/19 03:48:03;;;;;;;4.43;0.65;;;14.60;93.50;;;;;;10560934;27;20043;-67
2022/09/19 03:53:06;;;;;;;2.70;0.40;;;14.60;93.50;;;;;;10567528;28;20046;-67
2022/09/19 03:58:10;;;;;;;3.00;0.65;;;14.60;93.50;;;;;;10541192;27;20115;-67
2022/09/19 04:03:11;;;;;;;2.90;0.50;;;14.50;93.40;;;;;;10561015;27;20079;-66
2022/09/19 04:08:11;;;;;;;3.88;0.60;;;14.60;93.50;;;;;;10563946;27;20032;-67
2022/09/19 04:13:13;;;;;;;3.03;0.40;;;14.50;93.40;;;;;;10563080;27;20028;-67
2022/09/19 04:18:14;;;;;;;2.88;0.50;;;14.50;93.40;;;;;;10564319;27;20639;-67
2022/09/19 04:23:16;;;;;;;1.27;0.50;;;14.50;93.40;;;;;;10564866;27;20110;-67
2022/09/19 04:28:18;;;;;;;2.72;0.80;;;14.50;93.40;;;;;;10563171;27;20026;-67
2022/09/19 04:33:20;;;;;;;2.20;0.40;;;14.50;93.40;;;;;;10563763;27;20043;-67
2022/09/19 04:38:20;;;;;;;1.58;0.47;;;14.50;93.40;;;;;;10563325;27;20044;-67
2022/09/19 04:43:22;;;;;;;2.28;0.40;;;14.50;93.40;;;;;;10560772;28;20040;-67
2022/09/19 04:48:23;;;;;;;2.78;0.50;;;14.50;93.40;;;;;;10540935;27;20027;-67
2022/09/19 04:53:27;;;;;;;2.15;0.43;;;14.40;93.40;;;;;;10564521;27;20016;-67
2022/09/19 04:58:28;;;;;;;3.50;0.68;;;14.40;93.40;;;;;;10558131;28;20407;-67
2022/09/19 05:03:30;;;;;;;2.35;0.77;;;14.40;93.40;;;;;;10559871;28;20032;-67
2022/09/19 05:08:32;;;;;;;1.05;0.35;;;14.40;93.40;;;;;;10561343;28;20028;-67
2022/09/19 05:13:37;;;;;;;2.05;0.50;;;14.40;93.40;;;;;;10562101;27;20082;-67
2022/09/19 05:18:39;;;;;;;2.05;0.60;;;14.40;93.30;;;;;;10561279;27;20099;-67
2022/09/19 05:23:40;;;;;;;1.00;0.40;;;14.40;93.30;;;;;;10560721;27;20391;-67
2022/09/19 05:28:42;;;;;;;2.53;0.40;;;14.30;93.30;;;;;;10560652;28;20034;-67
2022/09/19 05:33:43;;;;;;;3.17;0.38;;;14.30;93.60;;;;;;10560886;27;20028;-67
2022/09/19 05:38:44;;;;;;;2.17;0.60;;;14.40;93.30;;;;;;10560078;28;20062;-67
2022/09/19 05:43:45;;;;;;;3.47;0.63;;;14.30;93.30;;;;;;10556893;28;20445;-67
2022/09/19 05:48:47;;;;;;;4.65;0.80;;;14.30;93.30;;;;;;10559118;28;20495;-67
2022/09/19 05:53:55;;;;;;;4.65;0.60;;;14.30;93.30;;;;;;10548177;28;20030;-67
2022/09/19 05:58:56;;;;;;;1.88;0.38;;;14.30;93.30;;;;;;10472177;28;20020;-67
2022/09/19 06:03:57;;;;;;;2.42;0.60;;;14.30;93.30;;;;;;10477263;28;20336;-67
2022/09/19 06:08:58;;;;;;;6.00;0.80;;;14.30;93.50;;;;;;10476216;28;20057;-67
2022/09/19 06:14:14;;;;;;;2.05;0.50;;;14.30;93.20;;;;;;10481948;27;20991;-67
2022/09/19 06:19:15;;;;;;;1.48;0.50;;;14.30;93.20;;;;;;10486288;28;20037;-67
2022/09/19 06:24:16;;;;;;;2.45;0.55;;;14.30;93.20;;;;;;10491318;27;20767;-67
2022/09/19 06:29:17;;;;;;;3.20;0.68;;;14.30;93.10;;;;;;10492211;28;20024;-67
2022/09/19 06:34:17;;;;;;;2.83;0.50;;;14.30;93.40;;;;;;10495052;27;20032;-67
2022/09/19 06:39:20;;;;;;;2.72;0.65;;;14.30;93.10;;;;;;10488186;28;21097;-68
2022/09/19 06:44:24;;;;;;;3.35;0.52;;;14.30;93.10;;;;;;10491291;27;20454;-68
2022/09/19 06:49:27;;;;;;;2.17;0.50;;;14.30;93.00;;;;;;10487193;28;20050;-67
2022/09/19 06:54:27;;;;;;;3.50;1.08;;;14.30;93.00;;;;;;10483249;28;20527;-67
2022/09/19 06:59:28;;;;;;;1.60;0.65;;;14.30;93.00;;;;;;10483820;27;20019;-68
2022/09/19 07:04:29;;;;;;;2.67;0.70;;;14.40;93.00;;;;;;10459177;28;20035;-68
2022/09/19 07:09:29;;;;;;;2.50;0.60;;;14.40;93.00;;;;;;10485509;28;20596;-68
2022/09/19 07:14:30;;;;;;;4.20;0.70;;;14.40;92.90;;;;;;10480671;27;20359;-68
2022/09/19 07:19:31;;;;;;;2.45;0.60;;;14.40;92.90;;;;;;10472576;28;20039;-68
2022/09/19 07:24:32;;;;;;;3.83;0.80;;;14.50;92.90;;;;;;10483686;28;20031;-68
2022/09/19 07:29:33;;;;;;;4.13;0.63;;;14.50;92.90;;;;;;10484297;27;20032;-68
2022/09/19 07:34:34;;;;;;;3.38;0.70;;;14.10;92.70;;;;;;10472967;28;21557;-67
2022/09/19 07:39:34;;;;;;;3.08;0.73;;;14.60;92.80;;;;;;10456843;28;20046;-68
2022/09/19 07:44:35;;;;;;;1.00;0.35;;;14.60;92.90;;;;;;10470028;28;20066;-67
2022/09/19 07:49:36;;;;;;;5.45;1.00;;;14.70;92.80;;;;;;10473626;27;20579;-68
2022/09/19 07:54:37;;;;;;;3.25;0.70;;;14.80;92.80;;;;;;10475503;27;20034;-68
2022/09/19 07:59:38;;;;;;;2.75;0.50;;;14.90;92.70;;;;;;10475791;28;20519;-67
2022/09/19 08:04:39;;;;;;;1.60;0.40;;;14.90;92.60;;;;;;10476755;28;20035;-68
2022/09/19 08:09:40;;;;;;;3.55;0.50;;;15.00;92.60;;;;;;10476898;28;20306;-69
2022/09/19 08:14:41;;;;;;;3.28;0.50;;;15.10;92.60;;;;;;10474932;27;21756;-68
2022/09/19 08:19:42;;;;;;;1.17;0.60;;;15.10;92.50;;;;;;10460918;28;20039;-67
2022/09/19 08:24:43;;;;;;;4.30;0.57;;;15.20;92.50;;;;;;10467500;27;20786;-66
2022/09/19 08:29:44;;;;;;;5.53;0.90;;;15.20;92.50;;;;;;10472865;28;20113;-69
2022/09/19 08:34:45;;;;;;;0.93;0.50;;;15.20;92.50;;;;;;10476310;28;20058;-67
2022/09/19 08:45:27;;;;;;;2.20;0.40;;;15.20;92.50;;;;;;10475874;27;20244;-67
2022/09/19 08:50:31;;;;;;;4.20;0.57;;;15.30;92.60;;;;;;10475184;28;20044;-68
2022/09/19 08:55:34;;;;;;;3.35;0.82;;;15.30;92.50;;;;;;10474824;28;20031;-68
2022/09/19 09:00:39;;;;;;;1.23;0.52;;;15.30;92.50;;;;;;10474528;27;20036;-69
2022/09/19 09:06:12;;;;;;;2.00;0.38;;;15.30;92.50;;;;;;10472682;27;20055;-67
2022/09/19 09:11:37;;;;;;;1.70;0.40;;;15.40;92.50;;;;;;10440445;28;20042;-68
2022/09/19 09:16:45;;;;;;;1.98;0.60;;;15.40;92.50;;;;;;10484070;28;20028;-68
2022/09/19 09:22:01;;;;;;;2.58;0.70;;;15.50;92.50;;;;;;10485606;28;20043;-68
2022/09/19 09:27:08;;;;;;;1.67;0.50;;;15.50;92.40;;;;;;10481860;22;20054;-68
2022/09/19 09:32:30;;;;;;;2.08;0.60;;;15.60;92.40;;;;;;10429943;28;20085;-68
2022/09/19 09:37:47;;;;;;;2.15;0.50;;;15.70;92.40;;;;;;10429545;28;20039;-67
2022/09/19 09:43:05;;;;;;;1.15;0.38;;;15.80;92.50;;;;;;10432121;28;20035;-67
2022/09/19 09:48:11;;;;;;;4.00;0.60;;;15.90;92.40;;;;;;10409058;28;20075;-66
2022/09/19 09:53:21;;;;;;;1.73;0.40;;;16.00;92.20;;;;;;10424060;28;20024;-66
2022/09/19 09:58:30;;;;;;;1.67;0.50;;;16.00;92.20;;;;;;10421902;28;20904;-66
2022/09/19 10:03:49;;;;;;;2.15;0.75;;;16.10;92.20;;;;;;10430869;28;20717;-66
2022/09/19 10:09:13;;;;;;;1.88;0.43;;;16.10;92.10;;;;;;10427231;28;20439;-66
2022/09/19 10:14:30;;;;;;;2.75;0.75;;;16.10;92.20;;;;;;10411025;28;20028;-67
2022/09/19 10:19:36;;;;;;;5.35;1.13;;;16.10;92.30;;;;;;10427227;28;20143;-67
2022/09/19 10:24:50;;;;;;;7.43;1.52;;;16.00;92.30;;;;;;10409241;28;20215;-67
2022/09/19 10:29:57;;;;;;;1.50;0.52;;;16.00;92.40;;;;;;10421721;28;20092;-67
2022/09/19 10:34:58;;;;;;;1.97;0.57;;;16.00;92.40;;;;;;10421567;28;20445;-67
2022/09/19 10:40:01;;;;;;;1.83;0.38;;;16.00;92.50;;;;;;10428624;28;20040;-68
2022/09/19 10:45:25;;;;;;;5.65;1.48;;;16.00;92.60;;;;;;10431143;28;20261;-65
2022/09/19 10:50:28;;;;;;;2.15;0.50;;;16.00;92.70;;;;;;10429977;28;20432;-66
2022/09/19 10:55:33;;;;;;;0.70;0.50;;;16.00;92.70;;;;;;10432974;28;20016;-67
2022/09/19 11:00:49;;;;;;;3.08;0.45;;;16.00;92.60;;;;;;10435729;28;20040;-68
2022/09/19 11:06:12;;;;;;;2.70;0.50;;;16.00;92.70;;;;;;10434923;28;20090;-66
2022/09/19 11:11:37;;;;;;;2.80;0.80;;;16.10;92.70;;;;;;10438758;28;20039;-67
2022/09/19 11:17:13;;;;;;;1.75;0.60;;;16.10;92.70;;;;;;10441627;28;20572;-66
2022/09/19 11:22:14;;;;;;;2.75;0.70;;;16.00;92.70;;;;;;10410401;28;20157;-66
2022/09/19 11:27:53;;;;;;;3.42;0.75;;;16.00;92.80;;;;;;10444876;28;20669;-67
2022/09/19 11:33:16;;;;;;;2.83;0.50;;;16.00;92.90;;;;;;10446160;28;20028;-65
2022/09/19 11:38:32;;;;;;;2.15;0.60;;;16.00;93.00;;;;;;10443098;28;20044;-66
2022/09/19 11:43:52;;;;;;;2.33;0.65;;;16.00;93.00;;;;;;10436803;28;20097;-64
2022/09/19 11:49:13;;;;;;;3.90;1.20;;;15.90;93.10;;;;;;10436651;28;20032;-69
2022/09/19 11:54:14;;;;;;;1.48;0.65;;;15.90;93.10;;;;;;10436879;28;20845;-64
2022/09/19 11:59:39;;;;;;;4.78;0.70;;;15.90;93.40;;;;;;10438682;28;20491;-65
2022/09/19 12:05:15;;;;;;;1.27;0.50;;;16.00;93.50;;;;;;10431904;28;20040;-65
2022/09/19 12:10:21;;;;;;;1.42;0.45;;;16.00;93.60;;;;;;10428759;28;20040;-64
2022/09/19 12:15:29;;;;;;;4.18;0.73;;;16.10;93.40;;;;;;10434353;28;20079;-64
2022/09/19 12:20:37;;;;;;;5.67;0.80;;;16.20;93.30;;;;;;10431333;28;20496;-64
2022/09/19 12:25:39;;;;;;;1.67;0.50;;;16.20;93.30;;;;;;10418922;28;20060;-65
2022/09/19 12:30:45;;;;;;;1.17;0.45;;;16.20;93.30;;;;;;10390536;28;20044;-68
2022/09/19 12:36:14;;;;;;;2.05;0.50;;;16.20;93.40;;;;;;10396366;28;20036;-66
2022/09/19 12:41:21;;;;;;;2.38;0.45;;;16.20;93.30;;;;;;10380086;28;20804;-67
2022/09/19 12:46:52;;;;;;;3.15;1.00;;;16.30;93.20;;;;;;10390581;28;20485;-68
2022/09/19 12:52:00;;;;;;;3.88;0.73;;;16.40;93.20;;;;;;10375155;28;20496;-67
2022/09/19 12:57:08;;;;;;;2.05;0.50;;;16.40;93.10;;;;;;10389093;28;20021;-68
2022/09/19 13:02:30;;;;;;;2.67;0.90;;;16.40;93.10;;;;;;10392478;28;20046;-66
2022/09/19 13:07:51;;;;;;;3.15;0.80;;;16.50;93.40;;;;;;10391502;28;20341;-67
2022/09/19 13:13:28;;;;;;;5.18;0.68;;;16.50;93.30;;;;;;10389597;28;20221;-66
2022/09/19 13:24:11;;;;;;;4.45;0.63;;;16.50;93.10;;;;;;10393526;28;20289;-66
2022/09/19 13:29:18;;;;;;;4.05;0.90;;;16.50;93.20;;;;;;10432082;28;20047;-67
2022/09/19 13:35:00;;;;;;;3.83;0.60;;;16.50;93.20;;;;;;10432694;28;20027;-69
2022/09/19 13:40:21;;;;;;;3.08;0.60;;;16.50;93.20;;;;;;10413333;28;20521;-66
2022/09/19 13:45:48;;;;;;;2.65;0.88;;;16.50;93.10;;;;;;10429134;28;20027;-66
2022/09/19 13:51:04;;;;;;;3.13;0.63;;;16.50;93.20;;;;;;10429952;28;20046;-64
2022/09/19 13:56:26;;;;;;;1.98;0.60;;;16.70;93.40;;;;;;10423401;28;20032;-64
2022/09/19 14:01:36;;;;;;;2.72;0.68;;;16.60;93.30;;;;;;10424764;28;20564;-64
2022/09/19 14:06:38;;;;;;;2.20;0.60;;;16.70;93.20;;;;;;10421526;28;20134;-65
2022/09/19 14:11:39;;;;;;;1.88;0.70;;;17.10;93.00;;;;;;10425856;28;20403;-65
2022/09/19 14:16:39;;;;;;;2.65;0.47;;;16.90;92.80;;;;;;10428160;28;20032;-65
2022/09/19 14:21:44;;;;;;;3.10;0.73;;;17.00;92.80;;;;;;10424881;28;20924;-64
2022/09/19 14:27:12;;;;;;;2.03;0.50;;;17.00;92.80;;;;;;10433117;28;20463;-65
2022/09/19 14:32:47;;;;;;;3.03;0.40;;;16.90;93.00;;;;;;10422617;28;20602;-65
2022/09/19 14:38:12;;;;;;;2.80;0.63;;;16.90;93.00;;;;;;10440903;28;20025;-66
2022/09/19 14:43:47;;;;;;;2.58;0.50;;;16.90;93.00;;;;;;10447072;28;20052;-65
2022/09/19 14:49:13;;;;;;;1.27;0.40;;;17.10;92.80;;;;;;10429326;28;20094;-65
2022/09/19 14:54:22;;;;;;;3.67;0.65;;;17.30;92.50;;;;;;10449871;28;20036;-66
2022/09/19 14:59:23;;;;;;;2.20;0.55;;;17.40;92.30;;;;;;10450019;28;20040;-65
2022/09/19 15:04:25;;;;;;;3.40;0.50;;;17.60;92.10;;;;;;10446432;28;20048;-66
2022/09/19 15:15:45;;;;;;;3.47;0.73;;;17.60;91.80;;;;;;10452780;28;20028;-65
2022/09/19 15:20:52;;;;;;;3.97;1.23;;;17.10;89.50;;;;;;10447561;28;20040;-63
2022/09/19 15:26:05;;;;;;;4.50;1.25;;;16.50;85.90;;;;;;10441744;28;20595;-61
2022/09/19 15:31:12;;;;;;;6.88;0.77;;;16.30;83.30;;;;;;10448256;28;20333;-62
2022/09/19 15:36:23;;;;;;;6.72;0.73;;;15.90;83.20;;;;;;10419040;28;20079;-69
2022/09/19 15:41:28;;;;;;;3.03;0.70;;;15.90;83.80;;;;;;10440981;28;20610;-62
2022/09/19 15:46:29;;;;;;;3.70;0.75;;;15.70;83.80;;;;;;10441203;28;20151;-62
2022/09/19 15:51:38;;;;;;;3.08;0.65;;;15.70;84.80;;;;;;10429069;28;20252;-67
2022/09/19 15:56:47;;;;;;;4.82;0.85;;;15.60;85.10;;;;;;10432563;28;20036;-61
2022/09/19 16:02:04;;;;;;;5.60;1.00;;;15.50;85.80;;;;;;10439450;28;20434;-67
2022/09/19 16:12:33;;;;;;;4.18;0.93;;;15.30;88.20;;;;;;10440835;28;20056;-69
2022/09/19 16:17:55;;;;;;;4.43;0.90;;;15.60;88.40;;;;;;10440040;28;20024;-62
2022/09/19 16:23:13;;;;;;;5.15;0.90;;;15.80;88.80;;;;;;10440844;28;20329;-63
2022/09/19 16:28:29;;;;;;;6.78;1.17;;;15.90;89.30;;;;;;10445231;28;20397;-60
2022/09/19 16:33:42;;;;;;;3.25;0.70;;;16.10;89.90;;;;;;10444165;28;20116;-62
2022/09/19 16:39:01;;;;;;;3.47;0.73;;;16.20;89.60;;;;;;10448515;28;20271;-68
2022/09/19 16:44:37;;;;;;;4.75;0.68;;;16.30;89.80;;;;;;10450748;28;20135;-67
2022/09/19 16:49:38;;;;;;;3.72;0.75;;;16.30;89.80;;;;;;10447002;28;20046;-66
2022/09/19 16:54:39;;;;;;;6.00;1.05;;;16.40;90.00;;;;;;10445002;28;20020;-62
2022/09/19 16:59:40;;;;;;;3.80;0.90;;;16.30;89.90;;;;;;10434063;28;20440;-61
2022/09/19 17:04:41;;;;;;;5.55;0.90;;;16.30;90.10;;;;;;10436655;28;20356;-61
2022/09/19 17:09:42;;;;;;;1.48;0.63;;;16.30;90.20;;;;;;10420701;28;20037;-62
2022/09/19 17:14:44;;;;;;;2.83;0.85;;;16.30;90.20;;;;;;10436102;28;20031;-68
2022/09/19 17:19:45;;;;;;;3.70;0.88;;;16.30;90.30;;;;;;10443317;28;20036;-62
2022/09/19 17:24:46;;;;;;;7.35;1.05;;;16.10;89.70;;;;;;10420980;28;20058;-62
2022/09/19 17:29:51;;;;;;;4.90;0.85;;;15.60;89.50;;;;;;10440534;28;20528;-65
2022/09/19 17:34:52;;;;;;;6.35;0.82;;;15.20;89.70;;;;;;10441502;28;20516;-64
2022/09/19 17:39:54;;;;;;;4.50;1.00;;;15.20;90.40;;;;;;10443359;28;20043;-64
2022/09/19 17:44:58;;;;;;;4.47;1.10;;;15.40;90.30;;;;;;10424505;28;20439;-64
2022/09/19 17:50:00;;;;;;;5.78;0.90;;;15.50;90.20;;;;;;10441156;28;20031;-66
2022/09/19 17:55:00;;;;;;;5.30;1.10;;;15.70;90.30;;;;;;10430753;28;20882;-65
2022/09/19 18:00:02;;;;;;;4.60;1.13;;;15.70;90.20;;;;;;10411849;28;20039;-63
2022/09/19 18:05:03;;;;;;;7.55;1.92;;;15.80;90.30;;;;;;10430311;28;20036;-63
2022/09/19 18:10:05;;;;;;;3.72;1.02;;;15.80;90.30;;;;;;10438999;28;20016;-63
2022/09/19 18:15:14;;;;;;;3.53;1.02;;;15.90;90.30;;;;;;10506890;28;20268;-64
2022/09/19 18:20:15;;;;;;;6.13;1.10;;;15.90;90.30;;;;;;10507697;28;20121;-63
2022/09/19 18:25:17;;;;;;;8.05;1.88;;;15.90;90.30;;;;;;10504669;28;20071;-63
2022/09/19 18:30:19;;;;;;;4.15;1.00;;;15.90;90.40;;;;;;10509379;28;20036;-63
2022/09/19 18:35:19;;;;;;;3.67;1.25;;;15.90;90.40;;;;;;10507620;28;20028;-64
2022/09/19 18:40:20;;;;;;;6.28;1.50;;;15.90;90.70;;;;;;10501542;28;20045;-64
2022/09/19 18:45:21;;;;;;;4.47;1.17;;;15.90;90.50;;;;;;10507722;28;20029;-65
2022/09/19 18:50:22;;;;;;;4.32;1.00;;;15.90;90.50;;;;;;10516331;28;20032;-64
2022/09/19 18:55:23;;;;;;;4.28;1.23;;;15.90;90.60;;;;;;10506291;28;20024;-64
2022/09/19 19:00:24;;;;;;;1.30;0.80;;;15.90;90.60;;;;;;10516691;28;20043;-63
2022/09/19 19:05:24;;;;;;;3.72;1.35;;;15.90;90.60;;;;;;10510364;28;20043;-64
2022/09/19 19:10:26;;;;;;;5.10;1.55;;;15.90;90.60;;;;;;10512528;28;20046;-63
2022/09/19 19:15:26;;;;;;;3.75;1.00;;;15.80;90.60;;;;;;10505303;28;20016;-64
2022/09/19 19:20:27;;;;;;;2.35;1.30;;;15.80;90.70;;;;;;10516495;28;20032;-64
2022/09/19 19:25:28;;;;;;;3.50;0.93;;;15.80;90.70;;;;;;10520075;28;20072;-64
2022/09/19 19:30:29;;;;;;;3.53;1.38;;;15.80;90.70;;;;;;10519432;28;20024;-64
2022/09/19 19:35:30;;;;;;;3.03;1.00;;;15.80;90.70;;;;;;10517062;28;20027;-63
2022/09/19 19:40:31;;;;;;;3.00;1.13;;;15.80;90.80;;;;;;10519346;28;20052;-66
2022/09/19 19:45:32;;;;;;;4.40;1.30;;;15.80;90.80;;;;;;10510538;28;20025;-64
2022/09/19 19:50:32;;;;;;;3.17;1.25;;;15.70;90.80;;;;;;10519422;28;20028;-64
2022/09/19 19:55:33;;;;;;;3.85;1.23;;;15.70;90.80;;;;;;10510193;28;20492;-64
2022/09/19 20:00:34;;;;;;;2.72;1.15;;;15.70;90.90;;;;;;10503961;28;20263;-63
2022/09/19 20:05:35;;;;;;;3.03;1.30;;;15.70;90.90;;;;;;10507638;28;20032;-70
2022/09/19 20:10:37;;;;;;;3.15;0.95;;;15.70;90.90;;;;;;10484527;28;20138;-68
2022/09/19 20:15:37;;;;;;;5.53;1.23;;;15.70;90.80;;;;;;10509957;28;20395;-70
2022/09/19 20:20:38;;;;;;;3.88;1.15;;;15.70;90.90;;;;;;10508828;28;20035;-66
2022/09/19 20:25:47;;;;;;;4.15;1.00;;;15.60;90.80;;;;;;10508054;28;20048;-64
2022/09/19 20:30:50;;;;;;;4.18;0.98;;;15.60;90.80;;;;;;10506297;28;20028;-64
2022/09/19 20:35:50;;;;;;;4.28;1.17;;;15.60;90.80;;;;;;10513149;28;20025;-70
2022/09/19 20:40:58;;;;;;;2.60;1.00;;;15.60;90.80;;;;;;10508778;28;20044;-68
2022/09/19 20:46:01;;;;;;;3.47;0.98;;;15.60;90.80;;;;;;10508893;28;20104;-63
2022/09/19 20:51:06;;;;;;;4.18;0.80;;;15.60;90.80;;;;;;10504507;28;20034;-66
2022/09/19 20:56:12;;;;;;;2.55;0.75;;;15.50;90.80;;;;;;10507757;28;20088;-70
2022/09/19 21:01:14;;;;;;;2.78;0.93;;;15.50;90.80;;;;;;10503564;28;20028;-67
2022/09/19 21:06:15;;;;;;;2.55;0.85;;;15.50;90.80;;;;;;10505657;28;20024;-67
2022/09/19 21:11:16;;;;;;;3.30;0.70;;;15.50;90.80;;;;;;10511778;28;20020;-70
2022/09/19 21:16:20;;;;;;;3.72;1.27;;;15.40;90.70;;;;;;10513141;28;20063;-63
2022/09/19 21:21:23;;;;;;;3.83;0.88;;;15.40;90.70;;;;;;10508332;28;20543;-64
2022/09/19 21:26:29;;;;;;;4.93;0.80;;;15.40;90.70;;;;;;10498747;28;20044;-64
2022/09/19 21:31:31;;;;;;;1.58;0.70;;;15.30;90.70;;;;;;10511874;28;20026;-67
2022/09/19 21:36:35;;;;;;;1.67;0.70;;;15.30;90.70;;;;;;10511321;28;20017;-68
2022/09/19 21:41:36;;;;;;;3.17;0.80;;;15.20;90.70;;;;;;10512645;28;20102;-70
2022/09/19 21:46:37;;;;;;;2.13;0.80;;;15.20;90.60;;;;;;10513516;28;20051;-64
2022/09/19 21:51:38;;;;;;;2.47;0.57;;;15.20;90.60;;;;;;10510225;28;20606;-66
2022/09/19 21:56:38;;;;;;;1.90;0.55;;;15.20;90.60;;;;;;10511826;28;20062;-64
2022/09/19 22:01:39;;;;;;;3.03;0.75;;;15.20;90.60;;;;;;10516517;28;20481;-64
2022/09/19 22:06:40;;;;;;;1.67;0.65;;;15.20;90.60;;;;;;10515853;28;20523;-69
2022/09/19 22:11:41;;;;;;;2.20;0.65;;;15.10;90.50;;;;;;10514839;28;20431;-63
2022/09/19 22:16:41;;;;;;;3.13;0.52;;;15.10;90.50;;;;;;10515547;28;20492;-64
2022/09/19 22:21:42;;;;;;;2.92;0.75;;;15.10;90.50;;;;;;10508800;28;20046;-68
2022/09/19 22:26:43;;;;;;;3.95;1.00;;;15.10;90.50;;;;;;10511864;28;20372;-63
2022/09/19 22:31:43;;;;;;;2.30;0.60;;;15.10;90.50;;;;;;10512540;28;20028;-64
2022/09/19 22:36:46;;;;;;;2.60;0.60;;;15.10;90.50;;;;;;10516332;28;20082;-63
2022/09/19 22:41:47;;;;;;;1.90;0.60;;;15.10;90.50;;;;;;10513691;28;20157;-64
2022/09/19 22:46:48;;;;;;;0.90;0.40;;;15.00;90.40;;;;;;10499693;28;20085;-64
2022/09/19 22:51:48;;;;;;;2.50;0.63;;;15.00;90.40;;;;;;10512465;28;20576;-64
2022/09/19 22:56:49;;;;;;;1.45;0.73;;;15.00;90.40;;;;;;10524622;28;20112;-64
2022/09/19 23:01:51;;;;;;;1.52;0.70;;;15.00;90.40;;;;;;10523084;28;20040;-66
2022/09/19 23:06:52;;;;;;;3.53;1.02;;;15.00;90.40;;;;;;10520450;28;20092;-63
2022/09/19 23:11:53;;;;;;;0.45;0.32;;;14.90;90.40;;;;;;10534329;23;20071;-71
2022/09/19 23:16:54;;;;;;;2.25;0.75;;;14.90;90.40;;;;;;10474187;28;20056;-63
2022/09/19 23:21:56;;;;;;;3.83;0.52;;;14.90;90.40;;;;;;10476616;28;20285;-65
2022/09/19 23:26:59;;;;;;;2.13;0.60;;;14.90;90.40;;;;;;10586379;22;20041;-64
2022/09/19 23:32:01;;;;;;;2.95;0.77;;;14.90;90.40;;;;;;10484162;28;20035;-64
2022/09/19 23:37:01;;;;;;;2.53;0.85;;;14.80;90.30;;;;;;10483529;28;20028;-64
2022/09/19 23:42:02;;;;;;;2.25;0.60;;;14.90;90.40;;;;;;10546605;23;20044;-63
2022/09/19 23:47:03;;;;;;;1.13;0.63;;;14.80;90.30;;;;;;10564000;28;20115;-63
2022/09/19 23:52:04;;;;;;;1.52;0.52;;;14.80;90.30;;;;;;10530788;22;20102;-71
2022/09/19 23:57:04;;;;;;;2.80;0.70;;;14.80;90.30;;;;;;10482049;28;20021;-64
